sensor_id;sensor_type;location;lat;lon;timestamp;P1;durP1;ratioP1;P2;durP2;ratioP2
22429;SDS011;11382;48.086;11.632;2024-01-30T00:01:13;7.75;;;4.13;;
22429;SDS011;11382;48.086;11.632;2024-01-30T00:03:41;6.60;;;4.88;;
22429;SDS011;11382;48.086;11.632;2024-01-30T00:06:11;6.53;;;4.57;;
22429;SDS011;11382;48.086;11.632;2024-01-30T00:08:39;7.78;;;4.75;;
22429;SDS011;11382;48.086;11.632;2024-01-30T00:11:07;6.78;;;4.65;;
22429;SDS011;11382;48.086;11.632;2024-01-30T00:13:36;6.97;;;4.38;;
22429;SDS011;11382;48.086;11.632;2024-01-30T00:16:04;9.68;;;4.80;;
22429;SDS011;11382;48.086;11.632;2024-01-30T00:18:33;7.22;;;4.75;;
22429;SDS011;11382;48.086;11.632;2024-01-30T00:21:01;7.60;;;5.18;;
22429;SDS011;11382;48.086;11.632;2024-01-30T00:23:29;7.32;;;4.60;;
22429;SDS011;11382;48.086;11.632;2024-01-30T00:25:57;9.23;;;5.07;;
22429;SDS011;11382;48.086;11.632;2024-01-30T00:28:25;9.45;;;4.65;;
22429;SDS011;11382;48.086;11.632;2024-01-30T00:30:55;9.68;;;4.53;;
22429;SDS011;11382;48.086;11.632;2024-01-30T00:33:23;7.28;;;4.70;;
22429;SDS011;11382;48.086;11.632;2024-01-30T00:35:51;6.63;;;4.50;;
22429;SDS011;11382;48.086;11.632;2024-01-30T00:38:19;6.10;;;4.40;;
22429;SDS011;11382;48.086;11.632;2024-01-30T00:40:47;5.85;;;3.97;;
22429;SDS011;11382;48.086;11.632;2024-01-30T00:43:15;5.88;;;3.55;;
22429;SDS011;11382;48.086;11.632;2024-01-30T00:45:43;6.10;;;4.07;;
22429;SDS011;11382;48.086;11.632;2024-01-30T00:48:13;7.75;;;4.10;;
22429;SDS011;11382;48.086;11.632;2024-01-30T00:50:41;6.03;;;4.10;;
22429;SDS011;11382;48.086;11.632;2024-01-30T00:53:09;6.70;;;4.13;;
22429;SDS011;11382;48.086;11.632;2024-01-30T00:55:37;5.60;;;3.90;;
22429;SDS011;11382;48.086;11.632;2024-01-30T00:58:05;7.35;;;4.22;;
22429;SDS011;11382;48.086;11.632;2024-01-30T01:00:33;4.68;;;3.80;;
22429;SDS011;11382;48.086;11.632;2024-01-30T01:03:01;8.63;;;4.20;;
22429;SDS011;11382;48.086;11.632;2024-01-30T01:05:31;6.80;;;3.83;;
22429;SDS011;11382;48.086;11.632;2024-01-30T01:07:59;5.63;;;4.07;;
22429;SDS011;11382;48.086;11.632;2024-01-30T01:10:27;7.60;;;4.13;;
22429;SDS011;11382;48.086;11.632;2024-01-30T01:12:55;8.75;;;4.28;;
22429;SDS011;11382;48.086;11.632;2024-01-30T01:15:24;6.05;;;3.88;;
22429;SDS011;11382;48.086;11.632;2024-01-30T01:17:55;6.65;;;4.20;;
22429;SDS011;11382;48.086;11.632;2024-01-30T01:20:24;8.75;;;4.20;;
22429;SDS011;11382;48.086;11.632;2024-01-30T01:22:53;6.15;;;4.13;;
22429;SDS011;11382;48.086;11.632;2024-01-30T01:25:21;7.53;;;4.28;;
22429;SDS011;11382;48.086;11.632;2024-01-30T01:27:49;5.47;;;3.63;;
22429;SDS011;11382;48.086;11.632;2024-01-30T01:30:19;8.77;;;4.38;;
22429;SDS011;11382;48.086;11.632;2024-01-30T01:32:48;5.80;;;3.90;;
22429;SDS011;11382;48.086;11.632;2024-01-30T01:35:21;6.10;;;3.70;;
22429;SDS011;11382;48.086;11.632;2024-01-30T01:37:52;8.77;;;4.40;;
22429;SDS011;11382;48.086;11.632;2024-01-30T01:40:22;6.88;;;4.32;;
22429;SDS011;11382;48.086;11.632;2024-01-30T01:42:51;8.65;;;4.10;;
22429;SDS011;11382;48.086;11.632;2024-01-30T01:45:20;6.70;;;4.07;;
22429;SDS011;11382;48.086;11.632;2024-01-30T01:47:49;6.10;;;4.30;;
22429;SDS011;11382;48.086;11.632;2024-01-30T01:50:19;6.88;;;3.97;;
22429;SDS011;11382;48.086;11.632;2024-01-30T01:52:49;8.85;;;4.10;;
22429;SDS011;11382;48.086;11.632;2024-01-30T01:55:20;6.63;;;4.00;;
22429;SDS011;11382;48.086;11.632;2024-01-30T01:57:51;6.65;;;4.10;;
22429;SDS011;11382;48.086;11.632;2024-01-30T02:00:20;6.47;;;4.70;;
22429;SDS011;11382;48.086;11.632;2024-01-30T02:02:49;7.15;;;4.47;;
22429;SDS011;11382;48.086;11.632;2024-01-30T02:05:17;7.50;;;4.38;;
22429;SDS011;11382;48.086;11.632;2024-01-30T02:07:46;6.47;;;4.30;;
22429;SDS011;11382;48.086;11.632;2024-01-30T02:10:14;7.43;;;4.45;;
22429;SDS011;11382;48.086;11.632;2024-01-30T02:12:44;5.90;;;4.18;;
22429;SDS011;11382;48.086;11.632;2024-01-30T02:15:13;6.93;;;4.20;;
22429;SDS011;11382;48.086;11.632;2024-01-30T02:17:41;6.30;;;4.22;;
22429;SDS011;11382;48.086;11.632;2024-01-30T02:20:09;5.57;;;3.85;;
22429;SDS011;11382;48.086;11.632;2024-01-30T02:22:41;6.78;;;3.83;;
22429;SDS011;11382;48.086;11.632;2024-01-30T02:25:10;6.53;;;3.90;;
22429;SDS011;11382;48.086;11.632;2024-01-30T02:27:38;5.97;;;3.67;;
22429;SDS011;11382;48.086;11.632;2024-01-30T02:30:07;6.80;;;3.85;;
22429;SDS011;11382;48.086;11.632;2024-01-30T02:32:35;6.63;;;4.10;;
22429;SDS011;11382;48.086;11.632;2024-01-30T02:35:03;5.63;;;3.63;;
22429;SDS011;11382;48.086;11.632;2024-01-30T02:37:32;5.63;;;3.78;;
22429;SDS011;11382;48.086;11.632;2024-01-30T02:40:01;7.00;;;3.80;;
22429;SDS011;11382;48.086;11.632;2024-01-30T02:42:30;4.43;;;3.20;;
22429;SDS011;11382;48.086;11.632;2024-01-30T02:44:58;5.65;;;3.33;;
22429;SDS011;11382;48.086;11.632;2024-01-30T02:47:26;6.35;;;3.70;;
22429;SDS011;11382;48.086;11.632;2024-01-30T02:49:54;4.50;;;3.42;;
22429;SDS011;11382;48.086;11.632;2024-01-30T02:52:22;5.88;;;3.47;;
22429;SDS011;11382;48.086;11.632;2024-01-30T02:54:50;5.68;;;3.15;;
22429;SDS011;11382;48.086;11.632;2024-01-30T02:57:20;4.85;;;3.03;;
22429;SDS011;11382;48.086;11.632;2024-01-30T02:59:47;5.03;;;3.28;;
22429;SDS011;11382;48.086;11.632;2024-01-30T03:02:15;4.90;;;3.20;;
22429;SDS011;11382;48.086;11.632;2024-01-30T03:04:43;6.35;;;3.70;;
22429;SDS011;11382;48.086;11.632;2024-01-30T03:07:13;5.82;;;3.08;;
22429;SDS011;11382;48.086;11.632;2024-01-30T03:09:41;5.00;;;3.53;;
22429;SDS011;11382;48.086;11.632;2024-01-30T03:12:10;4.65;;;3.03;;
22429;SDS011;11382;48.086;11.632;2024-01-30T03:14:39;5.15;;;3.20;;
22429;SDS011;11382;48.086;11.632;2024-01-30T03:17:07;4.25;;;3.53;;
22429;SDS011;11382;48.086;11.632;2024-01-30T03:19:35;4.22;;;3.15;;
22429;SDS011;11382;48.086;11.632;2024-01-30T03:22:04;4.05;;;3.00;;
22429;SDS011;11382;48.086;11.632;2024-01-30T03:24:32;4.70;;;3.00;;
22429;SDS011;11382;48.086;11.632;2024-01-30T03:27:00;6.53;;;2.95;;
22429;SDS011;11382;48.086;11.632;2024-01-30T03:29:28;4.32;;;2.80;;
22429;SDS011;11382;48.086;11.632;2024-01-30T03:31:57;7.28;;;3.05;;
22429;SDS011;11382;48.086;11.632;2024-01-30T03:34:25;3.35;;;2.63;;
22429;SDS011;11382;48.086;11.632;2024-01-30T03:36:53;4.70;;;2.88;;
22429;SDS011;11382;48.086;11.632;2024-01-30T03:39:22;6.00;;;3.03;;
22429;SDS011;11382;48.086;11.632;2024-01-30T03:41:51;6.82;;;3.35;;
22429;SDS011;11382;48.086;11.632;2024-01-30T03:44:19;4.65;;;2.60;;
22429;SDS011;11382;48.086;11.632;2024-01-30T03:46:47;3.72;;;2.63;;
22429;SDS011;11382;48.086;11.632;2024-01-30T03:49:16;4.15;;;2.72;;
22429;SDS011;11382;48.086;11.632;2024-01-30T03:51:44;3.50;;;2.47;;
22429;SDS011;11382;48.086;11.632;2024-01-30T03:54:14;4.20;;;2.50;;
22429;SDS011;11382;48.086;11.632;2024-01-30T03:56:42;4.00;;;2.25;;
22429;SDS011;11382;48.086;11.632;2024-01-30T03:59:10;3.75;;;2.47;;
22429;SDS011;11382;48.086;11.632;2024-01-30T04:01:38;3.42;;;2.50;;
22429;SDS011;11382;48.086;11.632;2024-01-30T04:04:06;3.30;;;2.33;;
22429;SDS011;11382;48.086;11.632;2024-01-30T04:06:36;4.18;;;2.47;;
22429;SDS011;11382;48.086;11.632;2024-01-30T04:09:04;3.40;;;2.10;;
22429;SDS011;11382;48.086;11.632;2024-01-30T04:11:32;3.75;;;2.20;;
22429;SDS011;11382;48.086;11.632;2024-01-30T04:14:00;2.92;;;1.90;;
22429;SDS011;11382;48.086;11.632;2024-01-30T04:16:28;3.58;;;2.20;;
22429;SDS011;11382;48.086;11.632;2024-01-30T04:18:56;2.65;;;2.00;;
22429;SDS011;11382;48.086;11.632;2024-01-30T04:21:25;3.35;;;2.00;;
22429;SDS011;11382;48.086;11.632;2024-01-30T04:23:55;4.40;;;2.42;;
22429;SDS011;11382;48.086;11.632;2024-01-30T04:26:24;2.45;;;1.90;;
22429;SDS011;11382;48.086;11.632;2024-01-30T04:28:52;3.80;;;2.20;;
22429;SDS011;11382;48.086;11.632;2024-01-30T04:31:20;2.90;;;2.00;;
22429;SDS011;11382;48.086;11.632;2024-01-30T04:33:48;2.15;;;1.73;;
22429;SDS011;11382;48.086;11.632;2024-01-30T04:36:16;2.58;;;1.92;;
22429;SDS011;11382;48.086;11.632;2024-01-30T04:38:44;2.47;;;1.65;;
22429;SDS011;11382;48.086;11.632;2024-01-30T04:41:14;3.88;;;2.10;;
22429;SDS011;11382;48.086;11.632;2024-01-30T04:43:42;3.33;;;1.90;;
22429;SDS011;11382;48.086;11.632;2024-01-30T04:46:10;2.67;;;1.83;;
22429;SDS011;11382;48.086;11.632;2024-01-30T04:48:38;2.13;;;1.90;;
22429;SDS011;11382;48.086;11.632;2024-01-30T04:51:06;2.20;;;1.60;;
22429;SDS011;11382;48.086;11.632;2024-01-30T04:53:34;2.17;;;1.60;;
22429;SDS011;11382;48.086;11.632;2024-01-30T04:56:02;2.55;;;1.65;;
22429;SDS011;11382;48.086;11.632;2024-01-30T04:58:33;2.30;;;1.55;;
22429;SDS011;11382;48.086;11.632;2024-01-30T05:01:01;2.28;;;1.70;;
22429;SDS011;11382;48.086;11.632;2024-01-30T05:03:32;3.10;;;2.03;;
22429;SDS011;11382;48.086;11.632;2024-01-30T05:06:01;2.03;;;1.50;;
22429;SDS011;11382;48.086;11.632;2024-01-30T05:08:29;2.35;;;1.73;;
22429;SDS011;11382;48.086;11.632;2024-01-30T05:10:59;2.25;;;1.48;;
22429;SDS011;11382;48.086;11.632;2024-01-30T05:13:30;1.48;;;1.33;;
22429;SDS011;11382;48.086;11.632;2024-01-30T05:15:59;3.28;;;1.50;;
22429;SDS011;11382;48.086;11.632;2024-01-30T05:18:29;2.38;;;1.67;;
22429;SDS011;11382;48.086;11.632;2024-01-30T05:20:58;2.67;;;1.63;;
22429;SDS011;11382;48.086;11.632;2024-01-30T05:23:26;2.58;;;1.98;;
22429;SDS011;11382;48.086;11.632;2024-01-30T05:25:54;3.60;;;1.98;;
22429;SDS011;11382;48.086;11.632;2024-01-30T05:28:22;2.50;;;1.85;;
22429;SDS011;11382;48.086;11.632;2024-01-30T05:30:50;2.10;;;1.50;;
22429;SDS011;11382;48.086;11.632;2024-01-30T05:33:19;3.90;;;1.50;;
22429;SDS011;11382;48.086;11.632;2024-01-30T05:35:47;4.22;;;1.65;;
22429;SDS011;11382;48.086;11.632;2024-01-30T05:38:16;3.85;;;1.70;;
22429;SDS011;11382;48.086;11.632;2024-01-30T05:40:44;3.17;;;1.60;;
22429;SDS011;11382;48.086;11.632;2024-01-30T05:43:12;3.33;;;1.70;;
22429;SDS011;11382;48.086;11.632;2024-01-30T05:45:40;2.15;;;1.40;;
22429;SDS011;11382;48.086;11.632;2024-01-30T05:48:08;2.28;;;1.58;;
22429;SDS011;11382;48.086;11.632;2024-01-30T05:50:38;2.72;;;1.83;;
22429;SDS011;11382;48.086;11.632;2024-01-30T05:53:06;1.92;;;1.50;;
22429;SDS011;11382;48.086;11.632;2024-01-30T05:55:34;3.35;;;1.83;;
22429;SDS011;11382;48.086;11.632;2024-01-30T05:58:02;2.22;;;1.50;;
22429;SDS011;11382;48.086;11.632;2024-01-30T06:00:30;2.92;;;1.55;;
22429;SDS011;11382;48.086;11.632;2024-01-30T06:02:59;2.65;;;1.80;;
22429;SDS011;11382;48.086;11.632;2024-01-30T06:05:27;2.13;;;1.63;;
22429;SDS011;11382;48.086;11.632;2024-01-30T06:07:56;1.90;;;1.58;;
22429;SDS011;11382;48.086;11.632;2024-01-30T06:10:24;2.22;;;1.42;;
22429;SDS011;11382;48.086;11.632;2024-01-30T06:12:52;2.63;;;1.38;;
22429;SDS011;11382;48.086;11.632;2024-01-30T06:15:20;4.28;;;1.70;;
22429;SDS011;11382;48.086;11.632;2024-01-30T06:17:48;3.08;;;1.48;;
22429;SDS011;11382;48.086;11.632;2024-01-30T06:20:17;2.35;;;1.60;;
22429;SDS011;11382;48.086;11.632;2024-01-30T06:22:45;2.30;;;1.58;;
22429;SDS011;11382;48.086;11.632;2024-01-30T06:25:14;2.10;;;1.67;;
22429;SDS011;11382;48.086;11.632;2024-01-30T06:27:43;2.50;;;2.05;;
22429;SDS011;11382;48.086;11.632;2024-01-30T06:30:11;4.80;;;2.30;;
22429;SDS011;11382;48.086;11.632;2024-01-30T06:32:40;2.88;;;1.92;;
22429;SDS011;11382;48.086;11.632;2024-01-30T06:35:08;2.50;;;1.70;;
22429;SDS011;11382;48.086;11.632;2024-01-30T06:37:36;2.95;;;1.77;;
22429;SDS011;11382;48.086;11.632;2024-01-30T06:40:05;3.85;;;1.83;;
22429;SDS011;11382;48.086;11.632;2024-01-30T06:42:36;2.60;;;1.92;;
22429;SDS011;11382;48.086;11.632;2024-01-30T06:45:04;2.15;;;1.55;;
22429;SDS011;11382;48.086;11.632;2024-01-30T06:47:33;2.67;;;1.52;;
22429;SDS011;11382;48.086;11.632;2024-01-30T06:50:01;2.28;;;1.67;;
22429;SDS011;11382;48.086;11.632;2024-01-30T06:52:29;3.85;;;1.70;;
22429;SDS011;11382;48.086;11.632;2024-01-30T06:54:58;2.13;;;1.80;;
22429;SDS011;11382;48.086;11.632;2024-01-30T06:57:26;1.73;;;1.45;;
22429;SDS011;11382;48.086;11.632;2024-01-30T06:59:55;2.13;;;1.48;;
22429;SDS011;11382;48.086;11.632;2024-01-30T07:02:24;3.92;;;1.70;;
22429;SDS011;11382;48.086;11.632;2024-01-30T07:04:52;3.13;;;1.63;;
22429;SDS011;11382;48.086;11.632;2024-01-30T07:07:20;4.32;;;1.90;;
22429;SDS011;11382;48.086;11.632;2024-01-30T07:09:48;2.42;;;1.75;;
22429;SDS011;11382;48.086;11.632;2024-01-30T07:12:19;3.45;;;1.50;;
22429;SDS011;11382;48.086;11.632;2024-01-30T07:14:47;5.47;;;1.95;;
22429;SDS011;11382;48.086;11.632;2024-01-30T07:17:16;2.85;;;1.90;;
22429;SDS011;11382;48.086;11.632;2024-01-30T07:19:44;4.60;;;1.90;;
22429;SDS011;11382;48.086;11.632;2024-01-30T07:22:12;2.08;;;1.50;;
22429;SDS011;11382;48.086;11.632;2024-01-30T07:24:42;2.88;;;1.90;;
22429;SDS011;11382;48.086;11.632;2024-01-30T07:27:13;3.47;;;1.80;;
22429;SDS011;11382;48.086;11.632;2024-01-30T07:29:44;2.67;;;1.80;;
22429;SDS011;11382;48.086;11.632;2024-01-30T07:32:12;4.78;;;1.80;;
22429;SDS011;11382;48.086;11.632;2024-01-30T07:34:41;2.28;;;1.75;;
22429;SDS011;11382;48.086;11.632;2024-01-30T07:37:28;4.72;;;1.80;;
22429;SDS011;11382;48.086;11.632;2024-01-30T07:39:56;3.38;;;1.80;;
22429;SDS011;11382;48.086;11.632;2024-01-30T07:42:24;3.50;;;1.70;;
22429;SDS011;11382;48.086;11.632;2024-01-30T07:44:52;2.67;;;1.67;;
22429;SDS011;11382;48.086;11.632;2024-01-30T07:47:20;3.03;;;1.50;;
22429;SDS011;11382;48.086;11.632;2024-01-30T07:49:50;2.75;;;1.70;;
22429;SDS011;11382;48.086;11.632;2024-01-30T07:52:19;3.78;;;2.00;;
22429;SDS011;11382;48.086;11.632;2024-01-30T07:54:47;2.95;;;1.70;;
22429;SDS011;11382;48.086;11.632;2024-01-30T07:57:15;2.80;;;1.75;;
22429;SDS011;11382;48.086;11.632;2024-01-30T07:59:44;4.95;;;1.70;;
22429;SDS011;11382;48.086;11.632;2024-01-30T08:02:12;6.68;;;2.00;;
22429;SDS011;11382;48.086;11.632;2024-01-30T08:04:41;3.13;;;1.45;;
22429;SDS011;11382;48.086;11.632;2024-01-30T08:07:10;1.63;;;1.30;;
22429;SDS011;11382;48.086;11.632;2024-01-30T08:09:38;2.75;;;1.65;;
22429;SDS011;11382;48.086;11.632;2024-01-30T08:12:06;4.05;;;1.58;;
22429;SDS011;11382;48.086;11.632;2024-01-30T08:14:34;6.78;;;1.83;;
22429;SDS011;11382;48.086;11.632;2024-01-30T08:17:03;1.73;;;1.60;;
22429;SDS011;11382;48.086;11.632;2024-01-30T08:19:31;2.53;;;1.50;;
22429;SDS011;11382;48.086;11.632;2024-01-30T08:21:59;3.85;;;1.55;;
22429;SDS011;11382;48.086;11.632;2024-01-30T08:24:29;4.40;;;1.70;;
22429;SDS011;11382;48.086;11.632;2024-01-30T08:26:57;2.17;;;1.40;;
22429;SDS011;11382;48.086;11.632;2024-01-30T08:29:27;3.28;;;2.03;;
22429;SDS011;11382;48.086;11.632;2024-01-30T08:31:55;4.25;;;1.70;;
22429;SDS011;11382;48.086;11.632;2024-01-30T08:34:25;3.50;;;1.60;;
22429;SDS011;11382;48.086;11.632;2024-01-30T08:36:53;6.47;;;1.95;;
22429;SDS011;11382;48.086;11.632;2024-01-30T08:39:21;3.35;;;1.83;;
22429;SDS011;11382;48.086;11.632;2024-01-30T08:41:51;3.13;;;2.00;;
22429;SDS011;11382;48.086;11.632;2024-01-30T08:44:19;2.17;;;1.45;;
22429;SDS011;11382;48.086;11.632;2024-01-30T08:46:47;5.13;;;1.63;;
22429;SDS011;11382;48.086;11.632;2024-01-30T08:49:16;6.05;;;1.98;;
22429;SDS011;11382;48.086;11.632;2024-01-30T08:51:44;3.45;;;1.50;;
22429;SDS011;11382;48.086;11.632;2024-01-30T08:54:13;2.50;;;1.55;;
22429;SDS011;11382;48.086;11.632;2024-01-30T08:56:41;3.22;;;1.50;;
22429;SDS011;11382;48.086;11.632;2024-01-30T08:59:11;2.65;;;1.67;;
22429;SDS011;11382;48.086;11.632;2024-01-30T09:01:39;3.88;;;1.65;;
22429;SDS011;11382;48.086;11.632;2024-01-30T09:04:21;3.22;;;1.60;;
22429;SDS011;11382;48.086;11.632;2024-01-30T09:06:51;4.55;;;1.80;;
22429;SDS011;11382;48.086;11.632;2024-01-30T09:09:20;4.57;;;1.55;;
22429;SDS011;11382;48.086;11.632;2024-01-30T09:11:48;3.38;;;1.60;;
22429;SDS011;11382;48.086;11.632;2024-01-30T09:14:17;3.22;;;1.63;;
22429;SDS011;11382;48.086;11.632;2024-01-30T09:16:45;3.03;;;1.48;;
22429;SDS011;11382;48.086;11.632;2024-01-30T09:19:15;4.15;;;1.77;;
22429;SDS011;11382;48.086;11.632;2024-01-30T09:21:43;3.28;;;1.90;;
22429;SDS011;11382;48.086;11.632;2024-01-30T09:24:11;4.47;;;1.63;;
22429;SDS011;11382;48.086;11.632;2024-01-30T09:26:39;5.20;;;1.63;;
22429;SDS011;11382;48.086;11.632;2024-01-30T09:29:08;2.78;;;1.60;;
22429;SDS011;11382;48.086;11.632;2024-01-30T09:31:37;2.92;;;1.58;;
22429;SDS011;11382;48.086;11.632;2024-01-30T09:34:05;1.90;;;1.23;;
22429;SDS011;11382;48.086;11.632;2024-01-30T09:36:34;3.72;;;1.40;;
22429;SDS011;11382;48.086;11.632;2024-01-30T09:39:02;1.75;;;1.13;;
22429;SDS011;11382;48.086;11.632;2024-01-30T09:41:30;1.95;;;1.30;;
22429;SDS011;11382;48.086;11.632;2024-01-30T09:44:00;3.10;;;1.25;;
22429;SDS011;11382;48.086;11.632;2024-01-30T09:46:30;3.20;;;1.30;;
22429;SDS011;11382;48.086;11.632;2024-01-30T09:49:02;3.38;;;1.50;;
22429;SDS011;11382;48.086;11.632;2024-01-30T09:51:31;5.35;;;1.23;;
22429;SDS011;11382;48.086;11.632;2024-01-30T09:53:59;2.80;;;1.20;;
22429;SDS011;11382;48.086;11.632;2024-01-30T09:56:27;2.20;;;1.20;;
22429;SDS011;11382;48.086;11.632;2024-01-30T09:58:55;1.13;;;0.90;;
22429;SDS011;11382;48.086;11.632;2024-01-30T10:01:23;1.60;;;1.20;;
22429;SDS011;11382;48.086;11.632;2024-01-30T10:03:53;4.43;;;1.25;;
22429;SDS011;11382;48.086;11.632;2024-01-30T10:06:23;2.25;;;1.25;;
22429;SDS011;11382;48.086;11.632;2024-01-30T10:08:52;1.83;;;1.38;;
22429;SDS011;11382;48.086;11.632;2024-01-30T10:11:20;2.35;;;1.33;;
22429;SDS011;11382;48.086;11.632;2024-01-30T10:13:49;2.00;;;1.15;;
22429;SDS011;11382;48.086;11.632;2024-01-30T10:16:18;2.30;;;1.20;;
22429;SDS011;11382;48.086;11.632;2024-01-30T10:18:46;1.45;;;0.95;;
22429;SDS011;11382;48.086;11.632;2024-01-30T10:21:15;2.72;;;1.10;;
22429;SDS011;11382;48.086;11.632;2024-01-30T10:23:44;1.65;;;1.17;;
22429;SDS011;11382;48.086;11.632;2024-01-30T10:26:12;1.50;;;0.80;;
22429;SDS011;11382;48.086;11.632;2024-01-30T10:28:40;3.47;;;1.20;;
22429;SDS011;11382;48.086;11.632;2024-01-30T10:31:08;2.78;;;1.20;;
22429;SDS011;11382;48.086;11.632;2024-01-30T10:33:36;2.60;;;1.27;;
22429;SDS011;11382;48.086;11.632;2024-01-30T10:36:05;6.72;;;1.60;;
22429;SDS011;11382;48.086;11.632;2024-01-30T10:38:33;2.40;;;1.58;;
22429;SDS011;11382;48.086;11.632;2024-01-30T10:41:03;2.80;;;1.42;;
22429;SDS011;11382;48.086;11.632;2024-01-30T10:43:32;1.73;;;1.13;;
22429;SDS011;11382;48.086;11.632;2024-01-30T10:46:06;1.52;;;1.20;;
22429;SDS011;11382;48.086;11.632;2024-01-30T10:48:41;2.72;;;1.20;;
22429;SDS011;11382;48.086;11.632;2024-01-30T10:51:11;1.60;;;1.20;;
22429;SDS011;11382;48.086;11.632;2024-01-30T10:53:41;2.13;;;1.17;;
22429;SDS011;11382;48.086;11.632;2024-01-30T10:58:45;2.55;;;1.30;;
22429;SDS011;11382;48.086;11.632;2024-01-30T11:01:14;4.18;;;1.20;;
22429;SDS011;11382;48.086;11.632;2024-01-30T11:03:42;3.00;;;1.55;;
22429;SDS011;11382;48.086;11.632;2024-01-30T11:06:11;2.80;;;1.50;;
22429;SDS011;11382;48.086;11.632;2024-01-30T11:08:40;6.32;;;1.63;;
22429;SDS011;11382;48.086;11.632;2024-01-30T11:11:08;2.90;;;1.40;;
22429;SDS011;11382;48.086;11.632;2024-01-30T11:13:41;4.38;;;1.48;;
22429;SDS011;11382;48.086;11.632;2024-01-30T11:16:09;4.53;;;1.42;;
22429;SDS011;11382;48.086;11.632;2024-01-30T11:18:39;6.43;;;1.60;;
22429;SDS011;11382;48.086;11.632;2024-01-30T11:21:07;6.15;;;1.40;;
22429;SDS011;11382;48.086;11.632;2024-01-30T11:23:35;5.82;;;1.70;;
22429;SDS011;11382;48.086;11.632;2024-01-30T11:26:03;2.63;;;1.60;;
22429;SDS011;11382;48.086;11.632;2024-01-30T11:28:32;4.43;;;1.70;;
22429;SDS011;11382;48.086;11.632;2024-01-30T11:31:06;5.25;;;1.88;;
22429;SDS011;11382;48.086;11.632;2024-01-30T11:33:35;4.75;;;2.28;;
22429;SDS011;11382;48.086;11.632;2024-01-30T11:36:03;3.75;;;2.28;;
22429;SDS011;11382;48.086;11.632;2024-01-30T11:38:33;4.60;;;2.33;;
22429;SDS011;11382;48.086;11.632;2024-01-30T11:41:02;5.80;;;2.15;;
22429;SDS011;11382;48.086;11.632;2024-01-30T11:43:31;4.53;;;2.00;;
22429;SDS011;11382;48.086;11.632;2024-01-30T11:46:01;4.82;;;2.38;;
22429;SDS011;11382;48.086;11.632;2024-01-30T11:48:31;6.20;;;2.45;;
22429;SDS011;11382;48.086;11.632;2024-01-30T11:50:59;4.35;;;2.13;;
22429;SDS011;11382;48.086;11.632;2024-01-30T11:53:27;5.05;;;1.88;;
22429;SDS011;11382;48.086;11.632;2024-01-30T11:55:55;3.53;;;1.70;;
22429;SDS011;11382;48.086;11.632;2024-01-30T11:58:24;6.00;;;1.92;;
22429;SDS011;11382;48.086;11.632;2024-01-30T12:00:53;5.72;;;2.05;;
22429;SDS011;11382;48.086;11.632;2024-01-30T12:03:22;5.60;;;1.90;;
22429;SDS011;11382;48.086;11.632;2024-01-30T12:05:56;5.20;;;2.03;;
22429;SDS011;11382;48.086;11.632;2024-01-30T12:08:25;3.45;;;1.70;;
22429;SDS011;11382;48.086;11.632;2024-01-30T12:10:57;4.22;;;2.00;;
22429;SDS011;11382;48.086;11.632;2024-01-30T12:15:59;3.45;;;1.73;;
22429;SDS011;11382;48.086;11.632;2024-01-30T12:18:28;7.15;;;2.05;;
22429;SDS011;11382;48.086;11.632;2024-01-30T12:20:59;4.07;;;1.95;;
22429;SDS011;11382;48.086;11.632;2024-01-30T12:23:27;6.70;;;2.30;;
22429;SDS011;11382;48.086;11.632;2024-01-30T12:25:56;2.97;;;1.83;;
22429;SDS011;11382;48.086;11.632;2024-01-30T12:28:25;4.18;;;2.10;;
22429;SDS011;11382;48.086;11.632;2024-01-30T12:30:55;10.30;;;2.55;;
22429;SDS011;11382;48.086;11.632;2024-01-30T12:33:26;3.40;;;2.15;;
22429;SDS011;11382;48.086;11.632;2024-01-30T12:35:54;2.75;;;2.00;;
22429;SDS011;11382;48.086;11.632;2024-01-30T12:38:30;5.75;;;2.38;;
22429;SDS011;11382;48.086;11.632;2024-01-30T12:40:59;5.72;;;2.10;;
22429;SDS011;11382;48.086;11.632;2024-01-30T12:43:27;6.65;;;1.90;;
22429;SDS011;11382;48.086;11.632;2024-01-30T12:46:04;5.88;;;2.42;;
22429;SDS011;11382;48.086;11.632;2024-01-30T12:48:33;4.75;;;2.10;;
22429;SDS011;11382;48.086;11.632;2024-01-30T12:51:01;4.55;;;2.40;;
22429;SDS011;11382;48.086;11.632;2024-01-30T12:53:32;9.07;;;2.20;;
22429;SDS011;11382;48.086;11.632;2024-01-30T12:56:00;4.70;;;2.17;;
22429;SDS011;11382;48.086;11.632;2024-01-30T12:58:28;6.47;;;2.42;;
22429;SDS011;11382;48.086;11.632;2024-01-30T13:00:56;6.93;;;2.30;;
22429;SDS011;11382;48.086;11.632;2024-01-30T13:03:25;3.40;;;2.05;;
22429;SDS011;11382;48.086;11.632;2024-01-30T13:05:53;5.78;;;2.08;;
22429;SDS011;11382;48.086;11.632;2024-01-30T13:08:21;5.70;;;1.98;;
22429;SDS011;11382;48.086;11.632;2024-01-30T13:10:50;3.78;;;1.63;;
22429;SDS011;11382;48.086;11.632;2024-01-30T13:13:19;3.55;;;1.85;;
22429;SDS011;11382;48.086;11.632;2024-01-30T13:15:47;2.63;;;1.52;;
22429;SDS011;11382;48.086;11.632;2024-01-30T13:18:15;5.90;;;1.70;;
22429;SDS011;11382;48.086;11.632;2024-01-30T13:20:44;3.78;;;1.80;;
22429;SDS011;11382;48.086;11.632;2024-01-30T13:23:12;2.78;;;1.63;;
22429;SDS011;11382;48.086;11.632;2024-01-30T13:25:40;4.38;;;1.45;;
22429;SDS011;11382;48.086;11.632;2024-01-30T13:28:09;5.25;;;2.03;;
22429;SDS011;11382;48.086;11.632;2024-01-30T13:30:37;5.30;;;1.65;;
22429;SDS011;11382;48.086;11.632;2024-01-30T13:33:05;7.45;;;1.90;;
22429;SDS011;11382;48.086;11.632;2024-01-30T13:35:33;7.30;;;1.85;;
22429;SDS011;11382;48.086;11.632;2024-01-30T13:38:02;5.00;;;1.75;;
22429;SDS011;11382;48.086;11.632;2024-01-30T13:40:30;2.33;;;1.65;;
22429;SDS011;11382;48.086;11.632;2024-01-30T13:42:58;5.53;;;1.70;;
22429;SDS011;11382;48.086;11.632;2024-01-30T13:45:28;3.08;;;1.50;;
22429;SDS011;11382;48.086;11.632;2024-01-30T13:47:56;3.20;;;1.85;;
22429;SDS011;11382;48.086;11.632;2024-01-30T13:50:26;4.35;;;1.77;;
22429;SDS011;11382;48.086;11.632;2024-01-30T13:52:54;2.75;;;1.60;;
22429;SDS011;11382;48.086;11.632;2024-01-30T13:55:24;3.97;;;1.75;;
22429;SDS011;11382;48.086;11.632;2024-01-30T13:57:52;7.43;;;2.03;;
22429;SDS011;11382;48.086;11.632;2024-01-30T14:00:20;4.47;;;1.73;;
22429;SDS011;11382;48.086;11.632;2024-01-30T14:02:50;4.35;;;1.92;;
22429;SDS011;11382;48.086;11.632;2024-01-30T14:05:20;8.07;;;2.00;;
22429;SDS011;11382;48.086;11.632;2024-01-30T14:07:49;2.95;;;1.52;;
22429;SDS011;11382;48.086;11.632;2024-01-30T14:10:17;3.97;;;1.58;;
22429;SDS011;11382;48.086;11.632;2024-01-30T14:12:46;8.63;;;1.92;;
22429;SDS011;11382;48.086;11.632;2024-01-30T14:15:14;3.20;;;1.58;;
22429;SDS011;11382;48.086;11.632;2024-01-30T14:17:55;3.97;;;1.90;;
22429;SDS011;11382;48.086;11.632;2024-01-30T14:20:25;2.90;;;1.63;;
22429;SDS011;11382;48.086;11.632;2024-01-30T14:22:54;3.65;;;1.95;;
22429;SDS011;11382;48.086;11.632;2024-01-30T14:25:23;3.80;;;1.80;;
22429;SDS011;11382;48.086;11.632;2024-01-30T14:27:51;5.43;;;1.88;;
22429;SDS011;11382;48.086;11.632;2024-01-30T14:30:20;5.05;;;1.60;;
22429;SDS011;11382;48.086;11.632;2024-01-30T14:32:48;5.05;;;1.35;;
22429;SDS011;11382;48.086;11.632;2024-01-30T14:35:18;6.80;;;1.50;;
22429;SDS011;11382;48.086;11.632;2024-01-30T14:37:46;3.00;;;1.45;;
22429;SDS011;11382;48.086;11.632;2024-01-30T14:40:14;7.05;;;2.05;;
22429;SDS011;11382;48.086;11.632;2024-01-30T14:42:43;3.78;;;1.45;;
22429;SDS011;11382;48.086;11.632;2024-01-30T14:45:11;2.90;;;1.40;;
22429;SDS011;11382;48.086;11.632;2024-01-30T14:47:39;4.95;;;1.65;;